createdAt,value
2018-06-19T00:02:22.000Z,91.00
2018-06-19T00:04:56.513Z,91.20
2018-06-19T00:07:53.462Z,91.10
2018-06-19T00:10:28.160Z,91.00
2018-06-19T00:13:03.255Z,90.70
2018-06-19T00:15:43.322Z,90.60
2018-06-19T00:18:23.313Z,90.60
2018-06-19T00:21:04.465Z,90.70
2018-06-19T00:23:38.796Z,90.70
2018-06-19T00:26:13.099Z,90.30
2018-06-19T00:28:48.058Z,90.30
2018-06-19T00:31:22.448Z,90.20
2018-06-19T00:33:56.822Z,89.30
2018-06-19T00:36:32.104Z,87.30
2018-06-19T00:39:08.984Z,86.30
2018-06-19T00:41:43.301Z,85.00
2018-06-19T00:44:17.956Z,80.80
2018-06-19T00:46:53.076Z,80.00
2018-06-19T00:49:28.200Z,78.00
2018-06-19T00:52:02.421Z,77.20
2018-06-19T00:54:36.626Z,77.10
2018-06-19T00:57:13.984Z,76.10
2018-06-19T00:59:48.894Z,75.80
2018-06-19T01:02:23.932Z,75.80
2018-06-19T01:04:58.298Z,77.50
2018-06-19T01:07:33.388Z,78.20
2018-06-19T01:10:07.617Z,77.50
2018-06-19T01:12:41.993Z,78.50
2018-06-19T01:15:16.345Z,78.10
2018-06-19T01:17:51.480Z,77.50
2018-06-19T01:20:25.904Z,78.00
2018-06-19T01:23:00.213Z,78.40
2018-06-19T01:25:34.544Z,79.60
2018-06-19T01:28:09.054Z,81.30
2018-06-19T01:30:43.384Z,81.40
2018-06-19T01:33:18.562Z,82.50
2018-06-19T01:35:53.028Z,82.30
2018-06-19T01:38:27.457Z,83.20
2018-06-19T01:41:01.778Z,84.80
2018-06-19T01:43:36.076Z,85.20
2018-06-19T01:46:10.368Z,85.10
2018-06-19T01:48:44.712Z,85.30
2018-06-19T01:51:18.946Z,85.50
2018-06-19T01:53:53.113Z,85.80
2018-06-19T01:56:27.748Z,86.70
2018-06-19T01:59:02.058Z,87.00
2018-06-19T02:01:36.284Z,87.40
2018-06-19T02:04:10.524Z,87.50
2018-06-19T02:06:45.017Z,87.50
2018-06-19T02:09:19.295Z,87.20
2018-06-19T02:11:53.657Z,87.30
2018-06-19T02:14:28.108Z,86.90
2018-06-19T02:17:02.420Z,86.60
2018-06-19T02:19:36.667Z,86.10
2018-06-19T02:22:11.069Z,85.50
2018-06-19T02:24:45.366Z,84.80
2018-06-19T02:27:20.610Z,83.90
2018-06-19T02:29:54.839Z,82.90
2018-06-19T02:35:03.336Z,82.90
2018-06-19T02:37:37.687Z,83.60
2018-06-19T02:40:11.957Z,84.40
2018-06-19T02:42:46.299Z,84.70
2018-06-19T02:45:20.541Z,85.70
2018-06-19T02:47:54.896Z,86.20
2018-06-19T02:50:29.816Z,86.20
2018-06-19T02:53:04.337Z,86.50
2018-06-19T02:55:38.658Z,86.30
2018-06-19T02:58:12.931Z,85.90
2018-06-19T03:00:47.170Z,85.50
2018-06-19T03:03:22.039Z,85.30
2018-06-19T03:05:56.544Z,85.00
2018-06-19T03:08:30.762Z,84.90
2018-06-19T03:11:05.181Z,84.10
2018-06-19T03:13:39.692Z,83.20
2018-06-19T03:16:14.242Z,82.50
2018-06-19T03:18:48.577Z,81.10
2018-06-19T03:21:22.912Z,80.90
2018-06-19T03:23:57.320Z,79.20
2018-06-19T03:26:32.669Z,77.60
2018-06-19T03:29:06.908Z,75.20
2018-06-19T03:31:41.286Z,74.30
2018-06-19T03:34:16.828Z,74.20
2018-06-19T03:36:51.245Z,72.40
2018-06-19T03:39:27.085Z,71.20
2018-06-19T03:42:02.645Z,70.90
2018-06-19T03:44:36.937Z,69.90
2018-06-19T03:47:12.107Z,68.00
2018-06-19T03:49:48.189Z,65.50
2018-06-19T03:52:22.536Z,64.20
2018-06-19T03:54:56.900Z,63.70
2018-06-19T03:57:31.932Z,63.70
2018-06-19T04:00:06.337Z,63.40
2018-06-19T04:02:42.060Z,61.90
2018-06-19T04:05:17.868Z,61.40
2018-06-19T04:07:52.234Z,59.30
2018-06-19T04:10:27.703Z,59.10
2018-06-19T04:13:02.171Z,57.30
2018-06-19T04:15:37.090Z,55.70
2018-06-19T04:18:11.380Z,55.60
2018-06-19T04:20:46.623Z,56.30
2018-06-19T04:25:55.506Z,55.50
2018-06-19T04:28:30.025Z,55.70
2018-06-19T04:31:04.685Z,55.50
2018-06-19T04:33:39.026Z,57.00
2018-06-19T04:36:13.429Z,55.70
2018-06-19T04:38:47.956Z,55.70
2018-06-19T04:41:22.364Z,56.50
2018-06-19T04:43:56.777Z,56.30
2018-06-19T04:46:31.180Z,55.70
2018-06-19T04:49:05.877Z,53.40
2018-06-19T04:51:41.107Z,54.80
2018-06-19T04:54:15.482Z,54.00
2018-06-19T04:56:50.351Z,54.40
2018-06-19T04:59:24.794Z,53.90
2018-06-19T05:01:58.989Z,53.20
2018-06-19T05:04:33.375Z,55.20
2018-06-19T05:07:07.968Z,55.70
2018-06-19T05:09:42.311Z,54.70
2018-06-19T05:12:18.852Z,53.60
2018-06-19T05:14:54.783Z,50.20
2018-06-19T05:17:30.030Z,50.20
2018-06-19T05:20:04.436Z,47.90
2018-06-19T05:22:38.857Z,46.60
2018-06-19T05:25:13.093Z,44.70
2018-06-19T05:27:48.316Z,44.30
2018-06-19T05:30:22.585Z,43.20
2018-06-19T05:32:56.940Z,42.50
2018-06-19T05:35:31.084Z,43.10
2018-06-19T05:38:05.335Z,41.80
2018-06-19T05:40:40.164Z,40.70
2018-06-19T05:43:18.841Z,40.40
2018-06-19T05:45:54.128Z,38.70
2018-06-19T05:48:31.568Z,38.90
2018-06-19T05:51:05.896Z,37.50
2018-06-19T05:53:40.208Z,36.80
2018-06-19T05:56:14.422Z,35.00
2018-06-19T05:58:48.706Z,33.50
2018-06-19T06:01:23.517Z,30.20
2018-06-19T06:03:57.956Z,28.70
2018-06-19T06:06:32.301Z,26.70
2018-06-19T06:09:08.567Z,26.40
2018-06-19T06:11:42.740Z,24.70
2018-06-19T06:14:17.060Z,25.80
2018-06-19T06:16:51.481Z,24.60
2018-06-19T06:19:25.946Z,24.50
2018-06-19T06:22:00.261Z,23.10
2018-06-19T06:24:34.629Z,22.70
2018-06-19T06:27:09.688Z,21.80
2018-06-19T06:29:44.038Z,21.80
2018-06-19T06:32:18.637Z,20.60
2018-06-19T06:34:53.362Z,19.60
2018-06-19T06:37:27.784Z,20.20
2018-06-19T06:40:02.388Z,20.10
2018-06-19T06:42:36.572Z,20.30
2018-06-19T06:45:15.016Z,20.20
2018-06-19T06:47:49.347Z,19.60
2018-06-19T06:50:23.787Z,19.60
2018-06-19T06:52:58.088Z,18.20
2018-06-19T06:55:32.400Z,17.10
2018-06-19T06:58:06.740Z,16.10
2018-06-19T07:00:41.149Z,15.60
2018-06-19T07:03:15.659Z,16.10
2018-06-19T07:05:50.080Z,16.30
2018-06-19T07:08:26.460Z,16.10
2018-06-19T07:11:03.952Z,15.70
2018-06-19T07:13:39.703Z,15.60
2018-06-19T07:16:15.674Z,14.70
2018-06-19T07:18:50.668Z,14.50
2018-06-19T07:21:26.914Z,15.60
2018-06-19T07:24:01.902Z,14.20
2018-06-19T07:26:36.433Z,12.50
2018-06-19T07:29:11.556Z,12.70
2018-06-19T07:31:45.863Z,12.40
2018-06-19T07:34:20.592Z,12.70
2018-06-19T07:36:54.999Z,12.30
2018-06-19T07:42:05.702Z,12.50
2018-06-19T07:44:40.819Z,12.70
2018-06-19T07:47:15.305Z,11.70
2018-06-19T07:49:50.069Z,12.60
2018-06-19T07:52:24.515Z,10.50
2018-06-19T07:54:58.974Z,11.10
2018-06-19T07:57:33.143Z,10.80
2018-06-19T08:00:07.648Z,9.50
2018-06-19T08:02:42.081Z,9.50
2018-06-19T08:05:16.395Z,9.20
2018-06-19T08:07:50.600Z,8.80
2018-06-19T08:10:24.944Z,8.90
2018-06-19T08:12:59.315Z,8.80
2018-06-19T08:15:33.777Z,9.40
2018-06-19T08:18:08.946Z,9.50
2018-06-19T08:20:43.237Z,9.50
2018-06-19T08:23:17.674Z,9.50
2018-06-19T08:25:52.219Z,9.50
2018-06-19T08:31:00.660Z,9.70
2018-06-19T08:33:34.922Z,9.60
2018-06-19T08:36:09.279Z,9.60
2018-06-19T08:38:43.491Z,9.70
2018-06-19T08:41:17.756Z,8.10
2018-06-19T08:43:53.074Z,7.90
2018-06-19T08:46:28.356Z,8.30
2018-06-19T08:49:02.724Z,8.90
2018-06-19T08:51:37.633Z,9.60
2018-06-19T08:54:11.877Z,9.10
2018-06-19T08:56:47.933Z,9.60
2018-06-19T08:59:22.757Z,8.00
2018-06-19T09:01:58.007Z,6.20
2018-06-19T09:04:34.363Z,5.70
2018-06-19T09:07:12.002Z,5.50
2018-06-19T09:09:47.502Z,5.70
2018-06-19T09:12:21.830Z,5.60
2018-06-19T09:14:56.193Z,6.20
2018-06-19T09:17:30.619Z,6.70
2018-06-19T09:20:06.018Z,6.00
2018-06-19T09:22:40.245Z,4.90
2018-06-19T09:25:16.042Z,4.00
2018-06-19T09:27:53.138Z,2.80
2018-06-19T09:30:28.069Z,2.80
2018-06-19T09:33:02.288Z,2.80
2018-06-19T09:35:37.560Z,2.70
2018-06-19T09:38:13.916Z,2.10
2018-06-19T09:40:49.154Z,2.20
2018-06-19T09:43:24.712Z,3.50
2018-06-19T09:45:59.606Z,3.60
2018-06-19T09:48:34.030Z,5.20
2018-06-19T09:51:11.049Z,5.20
2018-06-19T09:53:46.444Z,5.30
2018-06-19T09:56:20.794Z,6.30
2018-06-19T09:58:56.906Z,5.90
2018-06-19T10:01:31.478Z,6.20
2018-06-19T10:04:05.669Z,5.70
2018-06-19T10:06:40.192Z,5.40
2018-06-19T10:09:14.343Z,7.00
2018-06-19T10:11:48.841Z,9.80
2018-06-19T10:14:23.160Z,9.80
2018-06-19T10:16:58.973Z,10.70
2018-06-19T10:19:33.200Z,10.90
2018-06-19T10:24:47.324Z,14.60
2018-06-19T10:27:22.195Z,17.60
2018-06-19T10:29:58.713Z,18.50
2018-06-19T10:32:33.299Z,19.50
2018-06-19T10:35:07.739Z,21.40
2018-06-19T10:37:41.960Z,21.10
2018-06-19T10:40:16.297Z,23.40
2018-06-19T10:42:50.612Z,24.50
2018-06-19T10:45:25.093Z,23.30
2018-06-19T10:47:59.366Z,19.70
2018-06-19T10:50:33.764Z,17.20
2018-06-19T10:53:09.618Z,15.50
2018-06-19T10:55:43.912Z,12.00
2018-06-19T10:58:19.268Z,13.80
2018-06-19T11:00:53.695Z,14.90
2018-06-19T11:03:28.886Z,15.20
2018-06-19T11:06:03.148Z,15.80
2018-06-19T11:11:13.399Z,16.20
2018-06-19T11:13:47.717Z,16.70
2018-06-19T11:16:24.246Z,15.20
2018-06-19T11:18:58.593Z,15.80
2018-06-19T11:21:33.255Z,15.80
2018-06-19T11:24:07.722Z,16.30
2018-06-19T11:26:45.027Z,18.30
2018-06-19T11:29:20.517Z,18.60
2018-06-19T11:31:56.685Z,17.30
2018-06-19T11:34:31.492Z,18.30
2018-06-19T11:37:05.713Z,17.70
2018-06-19T11:39:40.964Z,16.90
2018-06-19T11:42:15.346Z,17.40
2018-06-19T11:44:50.504Z,15.90
2018-06-19T11:47:26.043Z,14.70
2018-06-19T11:50:00.321Z,17.80
2018-06-19T11:52:34.616Z,16.70
2018-06-19T11:55:08.820Z,15.10
2018-06-19T11:57:42.989Z,14.10
2018-06-19T12:00:17.340Z,14.30
2018-06-19T12:02:51.550Z,18.00
2018-06-19T12:05:25.799Z,17.90
2018-06-19T12:08:00.395Z,17.60
2018-06-19T12:10:34.758Z,17.60
2018-06-19T12:13:09.986Z,17.50
2018-06-19T12:15:45.116Z,17.50
2018-06-19T12:21:23.166Z,18.40
2018-06-19T12:23:57.834Z,19.10
2018-06-19T12:26:33.443Z,17.50
2018-06-19T12:29:14.215Z,17.60
2018-06-19T12:31:54.285Z,15.50
2018-06-19T12:34:31.344Z,14.70
2018-06-19T12:37:07.066Z,12.50
2018-06-19T12:39:41.399Z,11.50
2018-06-19T12:42:16.164Z,9.60
2018-06-19T12:44:52.847Z,8.40
2018-06-19T12:47:27.164Z,7.90
2018-06-19T12:50:43.585Z,8.80
2018-06-19T12:53:29.859Z,7.00
2018-06-19T12:56:14.211Z,5.60
2018-06-19T12:58:49.260Z,7.20
2018-06-19T13:01:23.669Z,7.70
2018-06-19T13:04:09.472Z,7.70
2018-06-19T13:06:43.847Z,5.80
2018-06-19T13:09:18.114Z,3.80
2018-06-19T13:11:52.305Z,3.10
2018-06-19T13:14:39.936Z,3.90
2018-06-19T13:17:25.931Z,4.90
2018-06-19T13:20:11.777Z,1.10
2018-06-19T13:22:46.048Z,1.00
2018-06-19T13:25:20.272Z,1.00
2018-06-19T13:27:54.693Z,1.00
2018-06-19T13:30:40.348Z,1.00
2018-06-19T13:33:14.586Z,1.00
2018-06-19T13:35:48.891Z,1.00
2018-06-19T13:38:23.628Z,1.00
2018-06-19T13:41:15.131Z,1.00
2018-06-19T13:44:02.193Z,1.00
2018-06-19T13:46:39.557Z,1.00
2018-06-19T13:49:13.968Z,1.00
2018-06-19T13:51:48.285Z,1.00
2018-06-19T13:54:22.612Z,1.00
2018-06-19T13:57:17.297Z,1.00
2018-06-19T13:59:53.090Z,1.00
2018-06-19T14:02:27.642Z,1.00
2018-06-19T14:05:09.614Z,1.00
2018-06-19T14:07:56.906Z,1.00
2018-06-19T14:11:44.716Z,1.00
2018-06-19T14:14:19.299Z,1.70
2018-06-19T14:16:53.768Z,3.00
2018-06-19T14:19:29.109Z,4.20
2018-06-19T14:24:39.077Z,3.50
2018-06-19T14:27:13.703Z,3.80
2018-06-19T14:29:48.848Z,5.40
2018-06-19T14:32:23.959Z,6.10
2018-06-19T14:34:58.392Z,7.20
2018-06-19T14:37:33.906Z,7.40
2018-06-19T14:40:08.262Z,6.80
2018-06-19T14:42:43.857Z,6.90
2018-06-19T14:45:18.408Z,6.60
2018-06-19T14:47:53.946Z,6.00
2018-06-19T14:50:29.045Z,4.60
2018-06-19T14:53:03.268Z,3.30
2018-06-19T14:55:37.750Z,2.00
2018-06-19T14:58:12.957Z,2.30
2018-06-19T15:00:47.345Z,1.20
2018-06-19T15:03:22.380Z,1.00
2018-06-19T15:05:57.149Z,2.60
2018-06-19T15:08:31.727Z,2.40
2018-06-19T15:11:06.417Z,1.50
2018-06-19T15:13:41.504Z,1.00
2018-06-19T15:16:16.229Z,1.10
2018-06-19T15:18:50.747Z,1.50
2018-06-19T15:21:25.063Z,1.30
2018-06-19T15:24:01.345Z,1.50
2018-06-19T15:26:36.163Z,1.00
2018-06-19T15:29:10.470Z,1.00
2018-06-19T15:31:44.785Z,1.00
2018-06-19T15:34:19.320Z,1.00
2018-06-19T15:36:54.358Z,1.00
2018-06-19T15:39:28.661Z,1.00
2018-06-19T15:42:03.232Z,1.00
2018-06-19T15:44:37.741Z,1.00
2018-06-19T15:47:12.400Z,1.00
2018-06-19T15:49:47.485Z,1.00
2018-06-19T15:52:22.448Z,1.20
2018-06-19T15:54:58.160Z,1.60
2018-06-19T16:00:07.841Z,1.00
2018-06-19T16:02:48.063Z,1.00
2018-06-19T16:05:23.544Z,1.00
2018-06-19T16:08:28.712Z,1.00
2018-06-19T16:11:04.255Z,1.00
2018-06-19T16:13:39.930Z,1.00
2018-06-19T16:16:14.419Z,1.00
2018-06-19T16:18:49.146Z,1.00
2018-06-19T16:21:24.122Z,1.00
2018-06-19T16:23:59.386Z,1.00
2018-06-19T16:26:34.081Z,1.00
2018-06-19T16:29:08.936Z,1.30
2018-06-19T16:31:43.415Z,1.00
2018-06-19T16:34:19.142Z,1.00
2018-06-19T16:36:53.448Z,1.00
2018-06-19T16:39:27.922Z,1.00
2018-06-19T16:42:02.369Z,1.00
2018-06-19T16:44:36.708Z,1.10
2018-06-19T16:47:11.056Z,2.10
2018-06-19T16:49:45.280Z,3.00
2018-06-19T16:52:19.444Z,3.80
2018-06-19T16:54:53.796Z,3.80
2018-06-19T16:57:28.305Z,3.10
2018-06-19T17:00:03.356Z,3.00
2018-06-19T17:02:38.623Z,4.50
2018-06-19T17:05:14.374Z,4.90
2018-06-19T17:07:54.287Z,4.60
2018-06-19T17:10:32.171Z,4.50
2018-06-19T17:13:07.772Z,5.30
2018-06-19T17:15:43.429Z,6.50
2018-06-19T17:18:19.852Z,8.20
2018-06-19T17:20:56.709Z,8.10
2018-06-19T17:23:35.492Z,7.90
2018-06-19T17:26:11.002Z,8.40
2018-06-19T17:28:45.875Z,7.90
2018-06-19T17:31:20.577Z,5.60
2018-06-19T17:33:56.171Z,5.90
2018-06-19T17:36:30.877Z,6.00
2018-06-19T17:39:07.918Z,5.10
2018-06-19T17:41:42.227Z,2.40
2018-06-19T17:44:17.513Z,1.80
2018-06-19T17:46:57.578Z,2.00
2018-06-19T17:49:38.432Z,2.40
2018-06-19T17:52:14.451Z,3.30
2018-06-19T17:54:49.017Z,5.30
2018-06-19T17:57:26.536Z,6.90
2018-06-19T18:00:01.200Z,8.40
2018-06-19T18:02:41.182Z,9.10
2018-06-19T18:08:13.632Z,11.00
2018-06-19T18:10:57.713Z,12.20
2018-06-19T18:13:39.899Z,12.90
2018-06-19T18:19:13.294Z,14.40
2018-06-19T18:27:31.096Z,19.90
2018-06-19T18:30:08.149Z,28.40
2018-06-19T18:32:48.391Z,39.50
2018-06-19T18:35:23.547Z,41.50
2018-06-19T18:37:59.783Z,42.60
2018-06-19T18:40:38.521Z,39.90
2018-06-19T18:43:16.821Z,40.20
2018-06-19T18:45:53.189Z,41.60
2018-06-19T18:48:28.129Z,42.90
2018-06-19T18:51:04.814Z,43.60
2018-06-19T18:53:39.323Z,45.10
2018-06-19T18:56:14.474Z,44.90
2018-06-19T18:58:49.506Z,45.20
2018-06-19T19:01:24.005Z,44.40
2018-06-19T19:03:58.381Z,45.80
2018-06-19T19:06:33.486Z,45.70
2018-06-19T19:09:09.512Z,45.60
2018-06-19T19:11:45.123Z,42.30
2018-06-19T19:14:20.013Z,43.80
2018-06-19T19:16:59.953Z,41.10
2018-06-19T19:19:34.232Z,41.00
2018-06-19T19:22:08.801Z,41.00
2018-06-19T19:24:43.862Z,42.20
2018-06-19T19:27:23.605Z,43.40
2018-06-19T19:29:57.822Z,44.20
2018-06-19T19:32:32.372Z,45.00
2018-06-19T19:35:06.801Z,44.30
2018-06-19T19:37:46.641Z,44.40
2018-06-19T19:40:20.788Z,45.90
2018-06-19T19:42:55.093Z,46.70
2018-06-19T19:45:30.670Z,46.80
2018-06-19T19:49:13.756Z,47.10
2018-06-19T19:51:48.689Z,46.10
2018-06-19T19:54:23.078Z,46.60
2018-06-19T19:57:03.372Z,45.90
2018-06-19T19:59:38.036Z,45.70
2018-06-19T20:02:12.578Z,45.60
2018-06-19T20:04:46.972Z,45.90
2018-06-19T20:07:22.487Z,46.50
2018-06-19T20:09:56.829Z,45.30
2018-06-19T20:12:31.023Z,45.50
2018-06-19T20:15:05.141Z,45.30
2018-06-19T20:17:39.663Z,45.20
2018-06-19T20:20:15.459Z,45.30
2018-06-19T20:22:49.783Z,45.30
2018-06-19T20:25:23.912Z,45.50
2018-06-19T20:27:58.721Z,45.10
2018-06-19T20:30:33.644Z,45.50
2018-06-19T20:33:07.975Z,45.70
2018-06-19T20:35:42.183Z,45.20
2018-06-19T20:38:16.568Z,45.20
2018-06-19T20:40:50.744Z,45.20
2018-06-19T20:43:25.072Z,45.30
2018-06-19T20:46:03.934Z,45.80
2018-06-19T20:48:38.636Z,46.00
2018-06-19T20:51:13.241Z,46.50
2018-06-19T20:53:48.437Z,46.70
2018-06-19T20:56:24.124Z,46.70
2018-06-19T20:59:01.016Z,47.30
2018-06-19T21:01:36.231Z,47.80
2018-06-19T21:04:12.109Z,48.30
2018-06-19T21:06:48.225Z,48.70
2018-06-19T21:09:22.554Z,49.20
2018-06-19T21:11:57.508Z,48.90
2018-06-19T21:14:35.873Z,49.00
2018-06-19T21:17:11.792Z,49.20
2018-06-19T21:19:49.062Z,48.60
2018-06-19T21:22:25.102Z,48.80
2018-06-19T21:25:01.934Z,48.90
2018-06-19T21:27:39.654Z,49.50
2018-06-19T21:30:15.229Z,49.50
2018-06-19T21:32:57.051Z,49.50
2018-06-19T21:35:33.622Z,49.50
2018-06-19T21:38:11.213Z,49.40
2018-06-19T21:40:50.345Z,49.50
2018-06-19T21:43:32.605Z,49.30
2018-06-19T21:46:12.836Z,47.60
2018-06-19T21:51:31.332Z,47.40
2018-06-19T21:54:07.312Z,47.70
2018-06-19T21:56:44.631Z,46.40
2018-06-19T21:59:28.565Z,46.60
2018-06-19T22:02:08.925Z,46.30
2018-06-19T22:04:50.485Z,46.10
2018-06-19T22:07:25.819Z,45.60
2018-06-19T22:10:04.748Z,45.70
2018-06-19T22:12:53.488Z,45.00
2018-06-19T22:15:28.568Z,44.50
2018-06-19T22:20:41.835Z,45.00
2018-06-19T22:23:17.052Z,45.10
2018-06-19T22:25:54.071Z,45.00
2018-06-19T22:28:35.492Z,45.40
2018-06-19T22:31:10.795Z,46.00
2018-06-19T22:33:49.556Z,46.70
2018-06-19T22:36:25.501Z,46.80
2018-06-19T22:39:01.988Z,46.90
2018-06-19T22:41:46.979Z,46.60
2018-06-19T22:47:11.768Z,46.00
2018-06-19T22:49:55.049Z,45.90
2018-06-19T22:52:40.064Z,44.80
2018-06-19T22:55:16.537Z,44.60
2018-06-19T22:57:53.623Z,43.20
2018-06-19T23:00:38.302Z,42.80
2018-06-19T23:03:19.460Z,41.80
2018-06-19T23:05:58.694Z,41.60
2018-06-19T23:08:41.118Z,42.30
2018-06-19T23:11:19.924Z,41.60
2018-06-19T23:13:56.086Z,42.20
2018-06-19T23:16:38.712Z,41.90
2018-06-19T23:19:16.398Z,42.10
2018-06-19T23:21:55.426Z,41.90
2018-06-19T23:24:35.398Z,40.70
2018-06-19T23:27:18.129Z,40.40
2018-06-19T23:29:57.572Z,40.70
2018-06-19T23:32:34.825Z,40.90
2018-06-19T23:35:10.700Z,41.00
2018-06-19T23:37:51.704Z,41.30
2018-06-19T23:40:28.185Z,41.40
2018-06-19T23:43:11.087Z,41.60
2018-06-19T23:45:53.997Z,41.40
2018-06-19T23:48:28.234Z,40.90
2018-06-19T23:51:08.174Z,40.80
2018-06-19T23:53:44.692Z,41.10
2018-06-19T23:56:25.878Z,41.20
2018-06-19T23:59:06.628Z,41.80
